Time;durP1;ratioP1;P1;durP2;ratioP2;P2;SDS_P1;SDS_P2;PMS_P1;PMS_P2;Temp;Humidity;BMP_temperature;BMP_pressure;BME280_temperature;BME280_humidity;BME280_pressure;Samples;Min_cycle;Max_cycle;Signal;HPM_P1;HPM_P2
2022/07/28 00:01:44;;;;;;;14.40;7.08;;;;;;;18.55;100.00;100534.66;1727444;82;21050;-43
2022/07/28 00:04:11;;;;;;;12.47;7.00;;;;;;;18.52;100.00;100533.88;1727562;83;20974;-43
2022/07/28 00:06:37;;;;;;;7.97;6.15;;;;;;;18.51;100.00;100536.56;1727400;82;21014;-44
2022/07/28 00:09:04;;;;;;;8.78;6.45;;;;;;;18.50;100.00;100538.80;1727542;83;21012;-43
2022/07/28 00:11:32;;;;;;;9.43;6.78;;;;;;;18.50;100.00;100540.11;1727634;82;20934;-43
2022/07/28 00:14:01;;;;;;;12.50;6.05;;;;;;;18.49;100.00;100538.42;1727614;81;21152;-43
2022/07/28 00:16:29;;;;;;;13.72;7.33;;;;;;;18.50;100.00;100545.36;1727573;83;20981;-44
2022/07/28 00:18:57;;;;;;;6.92;6.33;;;;;;;18.50;100.00;100539.66;1727558;82;21037;-43
2022/07/28 00:21:24;;;;;;;11.03;6.08;;;;;;;18.52;100.00;100540.88;1727559;82;21518;-43
2022/07/28 00:23:52;;;;;;;7.55;6.62;;;;;;;18.51;100.00;100544.42;1727483;82;21000;-44
2022/07/28 00:26:19;;;;;;;10.58;6.30;;;;;;;18.50;100.00;100546.66;1727566;82;21046;-43
2022/07/28 00:28:47;;;;;;;6.35;5.75;;;;;;;18.48;100.00;100544.59;1727387;82;20934;-43
2022/07/28 00:31:15;;;;;;;8.98;5.37;;;;;;;18.47;100.00;100550.75;1727453;83;20982;-43
2022/07/28 00:33:42;;;;;;;8.03;5.78;;;;;;;18.47;100.00;100553.38;1727509;83;21092;-43
2022/07/28 00:36:09;;;;;;;10.43;5.87;;;;;;;18.47;100.00;100556.00;1727591;82;20989;-43
2022/07/28 00:38:39;;;;;;;5.20;4.80;;;;;;;18.45;100.00;100560.02;1727548;82;21527;-43
2022/07/28 00:43:10;;;;;;;8.93;7.03;;;;;;;18.49;100.00;100558.08;1798456;79;22747;-43
2022/07/28 00:45:36;;;;;;;7.97;6.50;;;;;;;18.45;100.00;100560.47;1758103;80;20960;-43
2022/07/28 00:48:05;;;;;;;14.58;7.28;;;;;;;18.50;100.00;100563.25;1758130;81;21103;-43
2022/07/28 00:50:32;;;;;;;6.97;6.17;;;;;;;18.55;100.00;100559.55;1758096;81;21434;-43
2022/07/28 00:52:59;;;;;;;10.05;6.80;;;;;;;18.58;100.00;100551.08;1758044;81;20980;-43
2022/07/28 00:55:27;;;;;;;6.47;5.67;;;;;;;18.58;100.00;100558.08;1758129;81;20924;-43
2022/07/28 00:57:53;;;;;;;11.00;6.28;;;;;;;18.55;100.00;100557.76;1758108;81;20972;-43
2022/07/28 01:00:21;;;;;;;8.38;6.17;;;;;;;18.53;100.00;100555.68;1758035;81;21128;-43
2022/07/28 01:02:48;;;;;;;6.80;6.12;;;;;;;18.52;100.00;100558.78;1758126;81;20936;-43
2022/07/28 01:05:15;;;;;;;8.65;6.03;;;;;;;18.52;100.00;100557.92;1758023;81;20881;-43
2022/07/28 01:07:55;;;;;;;6.60;5.97;;;;;;;18.52;100.00;100559.23;1758088;81;21003;-43
2022/07/28 01:10:45;;;;;;;7.67;6.20;;;;;;;18.51;100.00;100565.39;1724663;83;21041;-42
2022/07/28 01:13:41;;;;;;;9.73;6.05;;;;;;;18.48;100.00;100562.94;1722492;83;21927;-44
2022/07/28 01:16:08;;;;;;;9.50;7.27;;;;;;;18.45;100.00;100563.95;1715847;83;20924;-44
2022/07/28 01:18:44;;;;;;;7.62;6.87;;;;;;;18.43;100.00;100561.84;1709157;84;21011;-43
2022/07/28 01:21:13;;;;;;;13.40;7.30;;;;;;;18.42;100.00;100558.00;1709315;84;21537;-44
2022/07/28 01:24:20;;;;;;;8.75;7.95;;;;;;;18.42;100.00;100558.00;1709132;84;20924;-44
2022/07/28 01:26:55;;;;;;;15.03;9.15;;;;;;;18.41;100.00;100556.31;1709297;83;21443;-44
2022/07/28 01:30:02;;;;;;;16.97;9.50;;;;;;;18.46;100.00;100562.16;1709650;84;20984;-43
2022/07/28 01:32:44;;;;;;;14.47;9.93;;;;;;;18.51;100.00;100567.56;1709106;83;20963;-42
2022/07/28 01:35:17;;;;;;;15.65;10.35;;;;;;;18.57;100.00;100565.56;1709189;84;20994;-43
2022/07/28 01:37:47;;;;;;;22.40;10.65;;;;;;;18.62;100.00;100563.10;1709395;84;21030;-44
2022/07/28 01:40:17;;;;;;;12.00;10.13;;;;;;;18.69;100.00;100562.78;1709039;84;21306;-44
2022/07/28 01:42:51;;;;;;;15.90;9.15;;;;;;;18.74;100.00;100554.21;1703899;83;21042;-44
2022/07/28 01:45:18;;;;;;;11.35;8.70;;;;;;;18.76;100.00;100555.84;1711718;83;20965;-42
2022/07/28 01:47:46;;;;;;;14.20;8.40;;;;;;;18.78;100.00;100557.05;1702052;84;20964;-42
2022/07/28 01:50:15;;;;;;;17.57;8.23;;;;;;;18.74;100.00;100552.91;1711825;83;20912;-42
2022/07/28 01:52:42;;;;;;;18.25;8.20;;;;;;;18.72;100.00;100555.62;1701790;84;21059;-43
2022/07/28 01:55:09;;;;;;;17.32;8.30;;;;;;;18.72;100.00;100564.80;1711092;83;20880;-43
2022/07/28 01:57:37;;;;;;;20.43;8.70;;;;;;;18.72;100.00;100565.24;1701489;84;20913;-42
2022/07/28 02:00:06;;;;;;;11.35;8.33;;;;;;;18.74;100.00;100568.63;1711167;83;20940;-43
2022/07/28 02:02:37;;;;;;;16.55;8.73;;;;;;;18.73;100.00;100566.94;1701342;84;21524;-42
2022/07/28 02:05:06;;;;;;;8.98;7.70;;;;;;;18.73;100.00;100572.18;1711212;83;21241;-43
2022/07/28 02:07:33;;;;;;;8.70;7.65;;;;;;;18.73;100.00;100578.29;1701666;84;21517;-43
2022/07/28 02:10:02;;;;;;;16.60;7.62;;;;;;;18.73;100.00;100580.05;1711259;83;20960;-43
2022/07/28 02:12:29;;;;;;;9.15;7.70;;;;;;;18.74;100.00;100586.98;1701432;84;20955;-43
2022/07/28 02:14:55;;;;;;;12.13;9.03;;;;;;;18.75;100.00;100593.92;1711158;83;21003;-43
2022/07/28 02:17:27;;;;;;;10.43;9.15;;;;;;;18.77;100.00;100596.00;1701511;84;20952;-43
2022/07/28 02:19:53;;;;;;;14.63;8.40;;;;;;;18.85;100.00;100602.17;1711116;83;21537;-43
2022/07/28 02:22:22;;;;;;;16.90;8.38;;;;;;;18.90;100.00;100588.36;1701515;84;21019;-43
2022/07/28 02:24:49;;;;;;;12.05;8.35;;;;;;;18.96;100.00;100595.93;1678514;85;20948;-43
2022/07/28 02:27:27;;;;;;;14.18;9.08;;;;;;;18.99;100.00;100599.73;1701385;84;21000;-43
2022/07/28 02:29:59;;;;;;;11.22;8.10;;;;;;;19.03;100.00;100610.89;1711157;83;22925;-44
2022/07/28 02:32:32;;;;;;;17.35;7.95;;;;;;;19.05;100.00;100609.04;1700360;84;21455;-43
2022/07/28 02:35:05;;;;;;;8.95;8.10;;;;;;;19.12;100.00;100606.95;1686150;85;20933;-43
2022/07/28 02:37:36;;;;;;;13.95;7.62;;;;;;;19.16;100.00;100605.86;1711054;83;20987;-43
2022/07/28 02:40:05;;;;;;;11.18;7.87;;;;;;;19.17;100.00;100603.17;1701782;84;20932;-43
2022/07/28 02:42:32;;;;;;;13.70;7.72;;;;;;;19.19;100.00;100603.94;1706088;83;21247;-43
2022/07/28 02:45:03;;;;;;;9.60;7.42;;;;;;;19.22;100.00;100607.70;1666275;84;20944;-44
2022/07/28 02:47:33;;;;;;;19.73;7.08;;;;;;;19.24;100.00;100608.47;1696074;84;21050;-43
2022/07/28 02:50:01;;;;;;;14.35;7.58;;;;;;;19.23;100.00;100610.72;1696075;84;20925;-44
2022/07/28 02:52:28;;;;;;;11.25;6.90;;;;;;;19.24;100.00;100617.66;1695990;84;20920;-43
2022/07/28 02:54:56;;;;;;;12.37;7.08;;;;;;;19.24;100.00;100609.78;1695860;83;22173;-43
2022/07/28 02:57:24;;;;;;;21.70;7.55;;;;;;;19.24;100.00;100617.66;1666404;84;20971;-43
2022/07/28 02:59:51;;;;;;;8.33;6.75;;;;;;;19.28;100.00;100617.49;1695930;83;21047;-43
2022/07/28 03:02:20;;;;;;;12.98;7.20;;;;;;;19.30;100.00;100620.88;1695973;84;20908;-43
2022/07/28 03:05:01;;;;;;;7.87;6.97;;;;;;;19.32;100.00;100622.95;1695759;84;20931;-43
2022/07/28 03:07:31;;;;;;;7.53;6.72;;;;;;;19.34;100.00;100629.00;1696080;84;21244;-43
2022/07/28 03:09:58;;;;;;;8.85;6.70;;;;;;;19.37;100.00;100628.84;1695699;83;21003;-42
2022/07/28 03:12:25;;;;;;;7.55;6.85;;;;;;;19.40;100.00;100624.73;1695799;83;21509;-42
2022/07/28 03:14:53;;;;;;;8.28;7.47;;;;;;;19.46;100.00;100626.20;1696004;84;20901;-43
2022/07/28 03:17:20;;;;;;;19.32;7.37;;;;;;;19.50;100.00;100632.48;1696136;84;21443;-42
2022/07/28 03:19:48;;;;;;;11.05;6.97;;;;;;;19.53;100.00;100633.63;1666550;84;20908;-43
2022/07/28 03:22:15;;;;;;;7.90;6.80;;;;;;;19.58;100.00;100636.47;1695995;84;21494;-43
2022/07/28 03:24:45;;;;;;;10.70;6.62;;;;;;;19.61;100.00;100641.11;1696072;84;21507;-43
2022/07/28 03:27:21;;;;;;;8.05;6.80;;;;;;;19.64;100.00;100639.63;1695860;84;21022;-43
2022/07/28 03:29:51;;;;;;;12.18;6.58;;;;;;;19.68;100.00;100636.38;1696028;83;21003;-43
2022/07/28 03:32:19;;;;;;;10.70;7.25;;;;;;;19.71;100.00;100638.84;1695933;84;21755;-43
2022/07/28 03:34:46;;;;;;;7.12;6.50;;;;;;;19.75;100.00;100632.48;1695883;84;21474;-43
2022/07/28 03:37:15;;;;;;;10.55;6.47;;;;;;;19.80;100.00;100639.64;1695976;84;21033;-43
2022/07/28 03:39:46;;;;;;;7.75;6.45;;;;;;;19.85;100.00;100643.82;1696173;84;21055;-43
2022/07/28 03:42:17;;;;;;;8.28;6.28;;;;;;;19.88;100.00;100646.28;1666109;84;20964;-43
2022/07/28 03:44:47;;;;;;;7.53;6.50;;;;;;;19.89;100.00;100647.48;1695841;84;21219;-43
2022/07/28 03:47:22;;;;;;;9.20;6.22;;;;;;;19.90;100.00;100647.87;1695809;84;20960;-44
2022/07/28 03:49:49;;;;;;;11.55;6.25;;;;;;;19.93;100.00;100652.98;1695825;84;20972;-43
2022/07/28 03:52:17;;;;;;;6.72;6.17;;;;;;;19.97;100.00;100653.67;1695953;84;20948;-43
2022/07/28 03:54:44;;;;;;;10.90;7.12;;;;;;;19.98;100.00;100657.16;1695998;84;20960;-43
2022/07/28 03:57:11;;;;;;;10.10;6.53;;;;;;;19.99;100.00;100660.17;1666274;84;20997;-43
2022/07/28 03:59:38;;;;;;;13.78;7.20;;;;;;;20.01;100.00;100657.81;1665940;84;20905;-43
2022/07/28 04:02:06;;;;;;;7.97;7.20;;;;;;;20.03;100.00;100660.37;1695956;84;20924;-43
2022/07/28 04:04:33;;;;;;;12.47;7.55;;;;;;;20.03;100.00;100659.89;1695957;84;21015;-44
2022/07/28 04:07:00;;;;;;;8.40;7.60;;;;;;;20.02;100.00;100663.45;1695857;84;21617;-43
2022/07/28 04:09:29;;;;;;;14.58;7.85;;;;;;;20.03;100.00;100669.09;1695970;84;21051;-43
2022/07/28 04:11:56;;;;;;;10.55;8.03;;;;;;;20.05;100.00;100661.14;1695790;84;20901;-43
2022/07/28 04:14:23;;;;;;;14.43;7.20;;;;;;;20.07;100.00;100667.16;1696116;84;21414;-43
2022/07/28 04:16:50;;;;;;;8.88;8.00;;;;;;;20.12;100.00;100664.28;1695716;83;20928;-43
2022/07/28 04:19:18;;;;;;;10.15;7.70;;;;;;;20.19;100.00;100669.08;1695912;83;21000;-43
2022/07/28 04:21:45;;;;;;;8.43;7.42;;;;;;;20.27;100.00;100671.29;1695888;84;21224;-43
2022/07/28 04:24:13;;;;;;;12.07;7.83;;;;;;;20.32;100.00;100674.50;1695915;83;21514;-43
2022/07/28 04:26:40;;;;;;;12.80;7.87;;;;;;;20.38;100.00;100666.75;1695993;84;21492;-43
2022/07/28 04:29:07;;;;;;;10.55;8.30;;;;;;;20.45;100.00;100667.25;1696251;84;20972;-43
2022/07/28 04:31:36;;;;;;;9.18;7.95;;;;;;;20.52;100.00;100669.45;1695911;84;20968;-43
2022/07/28 04:34:03;;;;;;;14.15;8.90;;;;;;;20.70;100.00;100664.53;1696008;84;21374;-43
2022/07/28 04:36:31;;;;;;;12.47;8.23;;;;;;;20.93;100.00;100665.39;1696083;84;20916;-43
2022/07/28 04:38:59;;;;;;;13.28;8.00;;;;;;;21.21;100.00;100661.11;1695870;84;21046;-44
2022/07/28 04:41:26;;;;;;;11.63;7.15;;;;;;;21.47;100.00;100653.87;1696011;84;20999;-44
2022/07/28 04:43:54;;;;;;;14.73;8.18;;;;;;;21.81;100.00;100647.88;1712763;83;21021;-45
2022/07/28 04:46:21;;;;;;;12.58;8.08;;;;;;;22.16;100.00;100659.76;1721715;83;21332;-43
2022/07/28 04:48:48;;;;;;;11.68;7.67;;;;;;;22.48;100.00;100669.58;1692933;84;20979;-44
2022/07/28 04:51:15;;;;;;;18.52;7.17;;;;;;;22.72;100.00;100666.72;1692707;83;20951;-44
2022/07/28 04:53:42;;;;;;;14.05;7.47;;;;;;;22.99;100.00;100671.09;1692815;84;20927;-44
2022/07/28 04:56:09;;;;;;;7.37;6.78;;;;;;;23.27;100.00;100667.92;1667177;84;20935;-44
2022/07/28 04:58:37;;;;;;;8.83;6.83;;;;;;;23.48;100.00;100669.08;1667064;84;21489;-44
2022/07/28 05:01:03;;;;;;;7.42;6.37;;;;;;;23.70;100.00;100669.35;1692597;84;20982;-44
2022/07/28 05:03:30;;;;;;;7.30;6.70;;;;;;;23.87;98.86;100674.75;1692739;84;20998;-44
2022/07/28 05:05:58;;;;;;;9.50;6.58;;;;;;;24.01;98.62;100675.98;1721387;83;20955;-44
2022/07/28 05:08:25;;;;;;;11.35;6.55;;;;;;;24.21;97.17;100676.34;1721542;82;21544;-44
2022/07/28 05:10:56;;;;;;;11.15;6.25;;;;;;;24.30;94.80;100680.95;1692587;84;21174;-44
2022/07/28 05:13:24;;;;;;;11.25;6.00;;;;;;;24.38;94.62;100685.22;1686290;84;20929;-43
2022/07/28 05:15:53;;;;;;;8.05;6.33;;;;;;;24.57;93.19;100682.52;1693636;84;20995;-44
2022/07/28 05:18:20;;;;;;;6.62;5.95;;;;;;;24.70;91.66;100684.27;1698494;84;20956;-44
2022/07/28 05:20:47;;;;;;;6.87;6.20;;;;;;;24.83;90.77;100683.72;1698312;84;20988;-44
2022/07/28 05:23:14;;;;;;;10.55;5.50;;;;;;;24.94;87.20;100688.20;1685637;84;21231;-43
2022/07/28 05:25:41;;;;;;;8.55;5.55;;;;;;;25.00;86.92;100683.76;1688465;84;21558;-43
2022/07/28 05:28:08;;;;;;;6.08;5.58;;;;;;;25.26;86.90;100692.83;1670459;84;20962;-43
2022/07/28 05:30:35;;;;;;;8.50;6.33;;;;;;;25.45;86.92;100694.06;1720067;83;21421;-44
2022/07/28 05:33:02;;;;;;;12.28;6.22;;;;;;;25.59;84.89;100699.17;1693904;83;21021;-44
2022/07/28 05:35:29;;;;;;;10.68;5.53;;;;;;;25.69;85.93;100692.67;1689446;84;21045;-43
2022/07/28 05:37:56;;;;;;;8.95;6.42;;;;;;;25.88;85.90;100692.50;1688902;84;20892;-44
2022/07/28 05:40:23;;;;;;;10.25;6.42;;;;;;;26.05;83.70;100684.05;1715698;83;21481;-44
2022/07/28 05:42:50;;;;;;;10.30;6.03;;;;;;;26.16;82.34;100687.66;1715664;83;21056;-44
2022/07/28 05:45:17;;;;;;;9.10;5.70;;;;;;;26.24;81.53;100687.91;1696068;84;21043;-44
2022/07/28 05:47:47;;;;;;;7.40;5.33;;;;;;;26.30;81.11;100689.22;1679792;84;22145;-44
2022/07/28 05:50:14;;;;;;;6.70;6.03;;;;;;;26.45;82.27;100695.91;1689731;84;21067;-43
2022/07/28 05:52:42;;;;;;;6.42;5.40;;;;;;;26.68;82.49;100703.78;1685111;84;21051;-44
2022/07/28 05:55:09;;;;;;;6.03;5.37;;;;;;;26.87;78.85;100717.70;1688288;84;21000;-44
2022/07/28 05:57:37;;;;;;;5.40;5.03;;;;;;;26.94;78.03;100722.88;1681344;84;21023;-44
2022/07/28 06:00:10;;;;;;;6.08;5.20;;;;;;;26.96;76.60;100720.94;1688966;84;21970;-44
2022/07/28 06:02:40;;;;;;;6.83;5.05;;;;;;;27.04;77.19;100710.14;1687887;84;21011;-44
2022/07/28 06:05:09;;;;;;;8.45;5.65;;;;;;;27.18;77.54;100705.84;1689311;83;21503;-44
2022/07/28 06:07:36;;;;;;;5.85;5.10;;;;;;;27.13;74.97;100706.70;1690359;84;21012;-45
2022/07/28 06:10:04;;;;;;;8.45;5.42;;;;;;;27.04;75.25;100707.02;1693566;84;20884;-44
2022/07/28 06:12:48;;;;;;;7.05;5.30;;;;;;;27.10;75.79;100716.25;1689760;83;20881;-44
2022/07/28 06:15:21;;;;;;;7.22;5.30;;;;;;;27.08;75.52;100719.06;1687174;84;21015;-45
2022/07/28 06:17:51;;;;;;;4.97;4.58;;;;;;;27.05;75.30;100719.80;1675200;84;20963;-45
2022/07/28 06:20:21;;;;;;;8.20;4.83;;;;;;;27.04;75.42;100724.28;1669322;84;20980;-44
2022/07/28 06:22:51;;;;;;;5.85;5.17;;;;;;;27.08;75.43;100720.86;1678041;84;21000;-45
2022/07/28 06:25:20;;;;;;;6.95;5.15;;;;;;;27.04;75.61;100730.06;1674659;84;21026;-44
2022/07/28 06:27:47;;;;;;;10.90;5.20;;;;;;;26.93;75.60;100730.49;1680876;84;21066;-44
2022/07/28 06:30:15;;;;;;;5.65;5.25;;;;;;;26.95;76.52;100731.67;1686666;84;21056;-45
2022/07/28 06:32:44;;;;;;;5.25;4.75;;;;;;;27.04;75.80;100722.09;1685040;84;20979;-44
2022/07/28 06:35:13;;;;;;;10.95;5.50;;;;;;;27.08;75.22;100728.36;1679177;84;21645;-44
2022/07/28 06:37:40;;;;;;;6.22;5.42;;;;;;;27.04;72.34;100731.39;1694777;83;21175;-45
2022/07/28 06:40:10;;;;;;;7.22;5.65;;;;;;;27.03;73.43;100731.03;1683037;84;20952;-44
2022/07/28 06:42:40;;;;;;;10.43;6.25;;;;;;;27.00;72.80;100735.28;1675601;84;21571;-46
2022/07/28 06:45:08;;;;;;;8.63;6.05;;;;;;;27.01;72.74;100728.50;1692565;84;21053;-44
2022/07/28 06:47:35;;;;;;;10.93;7.03;;;;;;;27.12;73.51;100731.58;1667329;84;20967;-44
2022/07/28 06:50:06;;;;;;;15.85;6.83;;;;;;;27.12;72.79;100736.89;1680810;84;21177;-44
2022/07/28 06:52:33;;;;;;;12.58;7.10;;;;;;;27.18;75.22;100732.41;1685671;84;21002;-44
2022/07/28 06:55:00;;;;;;;24.07;8.48;;;;;;;27.30;74.25;100731.84;1681013;84;21562;-44
2022/07/28 06:57:31;;;;;;;13.72;7.40;;;;;;;27.36;73.59;100731.79;1681010;83;20967;-45
2022/07/28 06:59:58;;;;;;;15.90;7.20;;;;;;;27.35;74.63;100728.78;1699887;83;21058;-45
2022/07/28 07:02:25;;;;;;;14.50;6.83;;;;;;;27.46;73.61;100734.50;1672653;84;21202;-44
2022/07/28 07:04:52;;;;;;;10.75;7.22;;;;;;;27.61;71.03;100732.36;1679760;84;21006;-45
2022/07/28 07:07:21;;;;;;;16.42;8.03;;;;;;;27.72;69.88;100732.77;1682150;84;20939;-44
2022/07/28 07:09:48;;;;;;;13.30;7.08;;;;;;;27.85;68.98;100731.20;1695753;84;20995;-44
2022/07/28 07:12:15;;;;;;;17.98;7.42;;;;;;;27.97;68.63;100730.13;1691497;82;22447;-45
2022/07/28 07:14:42;;;;;;;14.93;7.47;;;;;;;28.10;69.92;100741.35;1700647;83;22133;-45
2022/07/28 07:17:09;;;;;;;10.03;6.50;;;;;;;28.16;68.72;100743.14;1693721;83;21453;-45
2022/07/28 07:19:37;;;;;;;16.57;7.20;;;;;;;28.11;67.38;100748.35;1704074;83;21055;-45
2022/07/28 07:22:04;;;;;;;17.30;7.95;;;;;;;28.05;68.52;100751.56;1695456;83;20895;-44
2022/07/28 07:24:32;;;;;;;15.23;7.85;;;;;;;28.15;66.91;100745.41;1692335;84;20974;-44
2022/07/28 07:27:00;;;;;;;15.03;8.23;;;;;;;28.19;68.82;100742.39;1691792;84;22313;-44
2022/07/28 07:29:27;;;;;;;12.50;7.00;;;;;;;28.37;71.74;100743.05;1691707;84;21014;-45
2022/07/28 07:31:57;;;;;;;18.25;7.17;;;;;;;28.49;70.85;100735.79;1691965;84;21077;-44
2022/07/28 07:34:24;;;;;;;13.95;7.40;;;;;;;28.60;69.57;100732.16;1692019;84;21548;-45
2022/07/28 07:36:51;;;;;;;20.55;7.70;;;;;;;28.83;67.41;100734.05;1692113;84;21041;-44
2022/07/28 07:39:18;;;;;;;14.58;7.67;;;;;;;28.74;67.82;100733.55;1691972;84;21214;-45
2022/07/28 07:41:45;;;;;;;15.30;6.80;;;;;;;28.89;68.15;100737.48;1692153;84;20990;-45
2022/07/28 07:44:13;;;;;;;14.53;6.25;;;;;;;29.07;69.46;100730.95;1685869;84;21681;-45
2022/07/28 07:46:40;;;;;;;13.30;6.10;;;;;;;29.27;67.84;100738.88;1679933;85;21022;-45
2022/07/28 07:49:07;;;;;;;7.70;5.30;;;;;;;29.41;66.77;100749.61;1714404;83;20913;-44
2022/07/28 07:51:34;;;;;;;8.33;5.40;;;;;;;29.48;67.27;100753.40;1714631;83;21540;-45
2022/07/28 07:54:01;;;;;;;7.67;4.90;;;;;;;29.70;65.98;100753.17;1714307;83;20992;-44
2022/07/28 07:56:27;;;;;;;6.67;4.50;;;;;;;29.75;66.49;100757.09;1714339;83;20976;-45
2022/07/28 07:58:55;;;;;;;5.45;4.95;;;;;;;29.77;65.57;100756.44;1714566;83;21510;-44
2022/07/28 08:01:21;;;;;;;10.65;4.47;;;;;;;29.63;62.34;100763.58;1714454;83;21002;-45
2022/07/28 08:03:48;;;;;;;6.65;4.58;;;;;;;29.64;64.92;100763.92;1714378;83;21148;-45
2022/07/28 08:06:16;;;;;;;6.37;3.85;;;;;;;29.78;60.56;100759.45;1714244;83;20937;-44
2022/07/28 08:08:44;;;;;;;7.55;4.25;;;;;;;29.74;61.65;100766.08;1714221;83;20944;-45
2022/07/28 08:11:11;;;;;;;9.30;3.77;;;;;;;29.76;60.69;100768.09;1714421;83;21632;-45
2022/07/28 08:13:39;;;;;;;10.13;4.22;;;;;;;29.85;59.40;100766.86;1714455;83;21035;-45
2022/07/28 08:16:06;;;;;;;9.85;4.87;;;;;;;30.04;62.59;100761.95;1714415;83;21204;-45
2022/07/28 08:18:34;;;;;;;5.90;5.25;;;;;;;30.17;62.04;100762.45;1714256;83;21442;-45
2022/07/28 08:21:03;;;;;;;12.07;5.60;;;;;;;30.15;64.04;100762.23;1714453;83;21517;-45
2022/07/28 08:23:30;;;;;;;5.22;4.67;;;;;;;29.84;64.56;100772.70;1714383;83;20996;-45
2022/07/28 08:25:57;;;;;;;9.65;4.85;;;;;;;29.63;66.46;100768.91;1714448;83;20944;-44
2022/07/28 08:28:24;;;;;;;6.80;4.58;;;;;;;29.36;66.88;100774.02;1714364;83;21240;-45
2022/07/28 08:30:51;;;;;;;8.38;4.42;;;;;;;29.18;67.52;100772.59;1714374;83;20964;-44
2022/07/28 08:33:20;;;;;;;9.33;4.33;;;;;;;28.96;68.77;100771.05;1686169;83;20993;-45
2022/07/28 08:35:48;;;;;;;6.90;4.70;;;;;;;28.81;67.29;100771.98;1686484;83;20992;-45
2022/07/28 08:38:15;;;;;;;17.10;5.25;;;;;;;28.47;69.09;100766.52;1686399;83;20952;-45
2022/07/28 08:40:45;;;;;;;8.28;4.45;;;;;;;28.51;70.61;100770.58;1714346;83;21905;-45
2022/07/28 08:43:38;;;;;;;14.13;4.85;;;;;;;28.63;69.78;100768.63;1714250;83;21514;-45
2022/07/28 08:46:06;;;;;;;8.83;5.15;;;;;;;28.89;70.08;100760.12;1714332;83;20972;-44
2022/07/28 08:48:36;;;;;;;5.12;4.50;;;;;;;29.11;68.74;100764.32;1714245;83;21593;-44
2022/07/28 08:51:08;;;;;;;7.75;4.55;;;;;;;29.23;69.51;100762.81;1714448;83;20889;-44
2022/07/28 08:53:39;;;;;;;6.55;4.85;;;;;;;29.49;68.97;100760.41;1714302;83;21181;-45
2022/07/28 08:56:08;;;;;;;13.90;4.58;;;;;;;29.79;67.64;100766.94;1714309;83;20976;-45
2022/07/28 08:58:36;;;;;;;4.70;3.87;;;;;;;30.15;66.29;100763.57;1714387;83;20944;-45
2022/07/28 09:01:07;;;;;;;8.05;4.25;;;;;;;30.45;64.85;100766.41;1714352;83;20999;-45
2022/07/28 09:03:35;;;;;;;10.30;4.40;;;;;;;30.56;61.69;100766.67;1714744;83;20996;-45
2022/07/28 09:06:02;;;;;;;11.80;4.35;;;;;;;30.50;64.46;100761.95;1686706;83;21250;-45
2022/07/28 09:08:29;;;;;;;10.10;3.47;;;;;;;30.86;63.55;100767.81;1714575;83;20857;-44
2022/07/28 09:10:56;;;;;;;5.17;3.83;;;;;;;31.19;61.38;100769.39;1686166;83;20975;-45
2022/07/28 09:13:25;;;;;;;8.25;3.60;;;;;;;31.57;61.02;100764.62;1714548;83;21418;-43
2022/07/28 09:15:53;;;;;;;4.08;3.77;;;;;;;31.70;58.23;100769.53;1714597;83;20976;-45
2022/07/28 09:18:20;;;;;;;4.70;3.95;;;;;;;31.70;60.28;100772.21;1714731;83;21251;-45
2022/07/28 09:20:47;;;;;;;12.82;3.67;;;;;;;31.71;58.67;100773.06;1714483;83;20984;-45
2022/07/28 09:23:14;;;;;;;4.60;4.12;;;;;;;31.53;57.33;100788.20;1714631;82;20940;-43
2022/07/28 09:25:40;;;;;;;8.98;3.75;;;;;;;30.99;58.83;100788.80;1714623;83;20999;-44
2022/07/28 09:28:14;;;;;;;4.87;3.95;;;;;;;30.46;60.66;100786.77;1714667;83;21047;-44
2022/07/28 09:30:45;;;;;;;4.28;3.45;;;;;;;29.96;62.86;100798.70;1714723;83;21154;-44
2022/07/28 09:33:16;;;;;;;6.60;3.58;;;;;;;29.56;64.80;100794.48;1714678;83;20924;-43
2022/07/28 09:35:51;;;;;;;3.60;3.40;;;;;;;29.06;66.74;100795.03;1714465;83;20964;-43
2022/07/28 09:38:19;;;;;;;7.58;3.62;;;;;;;28.44;68.36;100811.22;1714462;83;20952;-43
2022/07/28 09:41:05;;;;;;;10.72;3.40;;;;;;;27.73;70.31;100812.40;1714881;83;20996;-43
2022/07/28 09:43:39;;;;;;;4.45;3.20;;;;;;;27.10;73.89;100810.55;1714568;83;21260;-44
2022/07/28 09:46:14;;;;;;;4.85;3.58;;;;;;;26.54;76.02;100815.91;1683404;85;20939;-44
2022/07/28 09:48:55;;;;;;;;;;;;;;;26.20;77.54;100827.88;1685829;84;20987;-44
2022/07/28 09:51:26;;;;;;;4.08;3.22;;;;;;;25.92;79.63;100830.52;1683462;85;20092;-44
2022/07/28 09:53:55;;;;;;;5.97;3.33;;;;;;;25.60;81.29;100829.38;1683257;85;20939;-43
2022/07/28 09:56:24;;;;;;;14.25;3.60;;;;;;;25.38;82.65;100832.30;1683605;85;21114;-44
2022/07/28 09:58:56;;;;;;;5.30;3.67;;;;;;;25.37;83.41;100829.75;1683366;85;20987;-44
2022/07/28 10:01:24;;;;;;;6.37;3.42;;;;;;;25.37;83.38;100837.70;1683416;85;21562;-44
2022/07/28 10:03:54;;;;;;;4.12;3.83;;;;;;;25.36;82.78;100831.57;1683205;84;20955;-44
2022/07/28 10:06:28;;;;;;;6.00;3.33;;;;;;;25.27;84.58;100836.70;1683658;85;20954;-44
2022/07/28 10:08:57;;;;;;;6.30;3.87;;;;;;;25.24;84.71;100838.63;1683242;85;21234;-44
2022/07/28 10:11:26;;;;;;;4.28;3.25;;;;;;;25.30;84.82;100835.16;1683366;85;21002;-44
2022/07/28 10:14:05;;;;;;;3.80;3.50;;;;;;;25.34;85.41;100839.25;1683390;85;20971;-43
2022/07/28 10:16:45;;;;;;;7.37;3.35;;;;;;;25.39;84.83;100832.66;1683347;85;20990;-44
2022/07/28 10:19:14;;;;;;;4.62;3.47;;;;;;;25.30;84.27;100843.09;1683283;85;21061;-44
2022/07/28 10:21:43;;;;;;;9.95;4.15;;;;;;;25.18;85.17;100842.21;1683237;85;21119;-44
2022/07/28 10:24:20;;;;;;;10.13;3.62;;;;;;;25.04;84.54;100845.42;1683441;83;20868;-44
2022/07/28 10:26:48;;;;;;;7.37;3.72;;;;;;;24.81;86.03;100843.98;1683298;83;20955;-44
2022/07/28 10:29:19;;;;;;;7.08;4.00;;;;;;;24.67;87.75;100843.63;1683311;85;20994;-44
2022/07/28 10:31:53;;;;;;;8.20;3.50;;;;;;;24.66;86.90;100848.55;1683321;85;20943;-44
2022/07/28 10:34:35;;;;;;;5.60;3.58;;;;;;;24.50;87.40;100847.48;1683443;85;21163;-44
2022/07/28 10:37:05;;;;;;;9.00;4.10;;;;;;;24.35;89.26;100846.75;1656299;85;20994;-44
2022/07/28 10:39:40;;;;;;;4.50;4.10;;;;;;;24.30;89.21;100858.14;1683432;85;20895;-44
2022/07/28 10:42:10;;;;;;;6.97;4.45;;;;;;;24.16;88.64;100860.92;1683295;85;20974;-44
2022/07/28 10:44:40;;;;;;;4.80;4.17;;;;;;;24.04;90.22;100859.48;1692712;83;21534;-44
2022/07/28 10:47:08;;;;;;;8.40;3.87;;;;;;;23.96;90.20;100854.69;1714441;83;21941;-44
2022/07/28 10:49:36;;;;;;;16.70;5.10;;;;;;;23.90;91.87;100856.92;1714380;83;20984;-44
2022/07/28 10:52:04;;;;;;;8.25;5.30;;;;;;;23.88;92.14;100862.80;1714285;83;21058;-44
2022/07/28 10:54:35;;;;;;;6.20;4.35;;;;;;;23.87;91.10;100861.08;1714404;83;21415;-44
2022/07/28 10:57:04;;;;;;;12.50;4.92;;;;;;;23.80;91.17;100868.11;1714393;83;20936;-44
2022/07/28 11:00:00;;;;;;;6.05;4.50;;;;;;;23.71;91.61;100859.50;1714889;83;21506;-44
2022/07/28 11:02:55;;;;;;;9.35;5.08;;;;;;;23.63;92.37;100860.02;1714610;83;21462;-43
2022/07/28 11:05:38;;;;;;;10.63;4.87;;;;;;;23.60;93.88;100860.68;1713683;83;20952;-44
2022/07/28 11:08:17;;;;;;;6.80;4.25;;;;;;;23.61;94.39;100859.27;1714267;83;20999;-44
2022/07/28 11:10:48;;;;;;;5.87;4.12;;;;;;;23.53;93.77;100860.27;1712687;83;21070;-44
2022/07/28 11:13:29;;;;;;;6.97;3.85;;;;;;;23.41;95.82;100858.43;1714443;82;21253;-43
2022/07/28 11:16:07;;;;;;;8.40;4.10;;;;;;;23.32;96.74;100859.88;1714329;83;20904;-43
2022/07/28 11:18:55;;;;;;;9.13;4.10;;;;;;;23.23;97.40;100862.62;1699785;83;21003;-44
2022/07/28 11:21:23;;;;;;;7.05;3.83;;;;;;;23.19;97.87;100858.49;1714225;83;20991;-44
2022/07/28 11:23:55;;;;;;;8.23;3.95;;;;;;;23.21;99.18;100854.81;1714599;83;21525;-44
2022/07/28 11:26:33;;;;;;;5.87;3.52;;;;;;;23.30;99.38;100857.81;1714731;83;21152;-44
2022/07/28 11:29:04;;;;;;;4.72;3.75;;;;;;;23.43;99.92;100860.49;1714321;83;22163;-43
2022/07/28 11:31:50;;;;;;;6.62;4.22;;;;;;;23.51;98.96;100859.03;1714550;83;20921;-43
2022/07/28 11:34:23;;;;;;;4.92;4.30;;;;;;;23.63;99.12;100853.41;1714465;83;20960;-43